Time;durP1;ratioP1;P1;durP2;ratioP2;P2;SDS_P1;SDS_P2;PMS_P1;PMS_P2;Temp;Humidity;BMP_temperature;BMP_pressure;BME280_temperature;BME280_humidity;BME280_pressure;Samples;Min_cycle;Max_cycle;Signal;HPM_P1;HPM_P2
2021/10/04 00:02:07;;;;;;;21.25;14.18;;;;;;;7.72;69.16;100803.13;1694968;83;20179;-67
2021/10/04 00:04:33;;;;;;;22.77;15.83;;;;;;;7.63;69.78;100800.95;1706912;82;21098;-66
2021/10/04 00:07:03;;;;;;;21.23;15.15;;;;;;;7.61;70.08;100800.36;1731527;83;21501;-66
2021/10/04 00:09:31;;;;;;;23.40;15.30;;;;;;;7.60;70.31;100791.92;1715265;82;21091;-66
2021/10/04 00:11:57;;;;;;;;;;;;;;;7.63;70.34;100785.53;1716800;83;21031;-66
2021/10/04 00:14:24;;;;;;;20.90;14.30;;;;;;;7.71;70.19;100788.46;1675224;83;20487;-67
2021/10/04 00:16:52;;;;;;;24.27;14.53;;;;;;;7.74;70.11;100782.58;1687970;83;21477;-67
2021/10/04 00:19:19;;;;;;;22.90;15.78;;;;;;;7.76;70.09;100785.35;1698735;83;21079;-67
2021/10/04 00:21:46;;;;;;;20.65;14.83;;;;;;;7.77;70.21;100784.83;1713369;83;21054;-67
2021/10/04 00:24:12;;;;;;;22.30;14.65;;;;;;;7.76;70.27;100781.29;1711094;82;21103;-67
2021/10/04 00:26:39;;;;;;;22.40;15.30;;;;;;;7.76;70.27;100769.64;1711570;82;21031;-67
2021/10/04 00:29:05;;;;;;;22.05;15.05;;;;;;;7.74;70.26;100766.32;1700501;82;21087;-66
2021/10/04 00:31:31;;;;;;;19.25;14.03;;;;;;;7.77;70.17;100763.98;1721772;83;21035;-66
2021/10/04 00:33:58;;;;;;;20.30;13.83;;;;;;;7.85;69.78;100762.84;1715431;82;21043;-67
2021/10/04 00:36:24;;;;;;;22.07;14.00;;;;;;;7.88;69.67;100758.31;1717055;83;20996;-66
2021/10/04 00:38:53;;;;;;;19.00;14.07;;;;;;;7.85;69.80;100767.73;1693986;83;21139;-66
2021/10/04 00:41:19;;;;;;;22.93;14.05;;;;;;;7.83;69.91;100762.25;1695843;83;20994;-67
2021/10/04 00:43:46;;;;;;;;;;;;;;;7.81;70.01;100765.17;1708032;83;21684;-67
2021/10/04 00:46:12;;;;;;;21.17;13.93;;;;;;;7.82;69.96;100759.23;1701750;83;20135;-67
2021/10/04 00:48:38;;;;;;;19.37;14.30;;;;;;;7.84;69.81;100759.82;1690052;83;21040;-67
2021/10/04 00:51:04;;;;;;;19.40;13.90;;;;;;;7.85;69.77;100773.68;1701858;83;20984;-67
2021/10/04 00:53:31;;;;;;;19.20;13.93;;;;;;;7.80;69.76;100778.95;1717229;83;21055;-67
2021/10/04 00:55:58;;;;;;;21.25;14.53;;;;;;;7.74;69.79;100783.41;1718362;83;21058;-67
2021/10/04 00:58:24;;;;;;;21.70;14.83;;;;;;;7.69;69.63;100788.67;1718067;83;21057;-67
2021/10/04 01:00:51;;;;;;;23.62;14.10;;;;;;;7.72;69.70;100780.64;1698686;83;21533;-67
2021/10/04 01:03:17;;;;;;;24.20;13.70;;;;;;;7.76;69.68;100769.64;1720739;82;21000;-66
2021/10/04 01:05:44;;;;;;;18.27;12.95;;;;;;;7.74;69.64;100766.32;1721457;82;21629;-66
2021/10/04 01:08:11;;;;;;;21.40;13.53;;;;;;;7.70;69.56;100773.25;1715306;82;21585;-66
2021/10/04 01:10:37;;;;;;;20.40;13.48;;;;;;;7.64;69.56;100776.35;1699452;83;21573;-67
2021/10/04 01:13:04;;;;;;;17.95;13.75;;;;;;;7.59;69.33;100772.65;1688760;83;21134;-67
2021/10/04 01:15:31;;;;;;;19.48;12.50;;;;;;;7.59;69.23;100771.30;1704079;83;21024;-66
2021/10/04 01:17:57;;;;;;;17.98;12.45;;;;;;;7.62;69.27;100772.19;1705135;83;21118;-66
2021/10/04 01:20:25;;;;;;;17.77;12.18;;;;;;;7.60;69.40;100772.95;1694319;83;21055;-66
2021/10/04 01:22:53;;;;;;;18.35;12.25;;;;;;;7.54;69.67;100765.22;1708291;83;21142;-67
2021/10/04 01:25:19;;;;;;;17.48;12.53;;;;;;;7.49;69.71;100778.61;1698785;83;20961;-66
2021/10/04 01:27:47;;;;;;;;;;;;;;;7.44;69.85;100777.92;1705586;80;21675;-67
2021/10/04 01:30:13;;;;;;;17.92;12.30;;;;;;;7.46;70.00;100773.13;1723270;82;20141;-66
2021/10/04 01:32:41;;;;;;;17.07;11.80;;;;;;;7.48;69.85;100772.88;1713161;82;21051;-67
2021/10/04 01:35:08;;;;;;;17.30;12.25;;;;;;;7.47;69.66;100775.31;1714226;83;21031;-67
2021/10/04 01:37:34;;;;;;;17.57;12.45;;;;;;;7.42;69.58;100778.69;1695386;81;21015;-67
2021/10/04 01:40:01;;;;;;;19.95;14.13;;;;;;;7.39;69.51;100787.27;1733221;83;21027;-69
2021/10/04 01:42:27;;;;;;;18.60;13.45;;;;;;;7.34;69.45;100787.62;1712862;83;21470;-67
2021/10/04 01:44:53;;;;;;;16.02;12.07;;;;;;;7.32;69.37;100785.16;1695422;83;21585;-67
2021/10/04 01:47:20;;;;;;;18.87;12.20;;;;;;;7.37;69.26;100789.88;1688155;83;21031;-66
2021/10/04 01:49:47;;;;;;;19.60;12.37;;;;;;;7.32;69.15;100789.23;1696738;83;21019;-66
2021/10/04 01:52:13;;;;;;;17.90;13.13;;;;;;;7.26;69.18;100786.59;1702659;83;21007;-66
2021/10/04 01:54:40;;;;;;;16.35;12.25;;;;;;;7.20;69.26;100784.77;1698814;83;21043;-67
2021/10/04 01:57:07;;;;;;;18.55;13.70;;;;;;;7.12;69.34;100789.94;1711884;83;20988;-66
2021/10/04 02:02:29;;;;;;;17.35;12.13;;;;;;;7.11;69.46;100796.95;1815854;79;22768;-67
2021/10/04 02:04:56;;;;;;;17.32;12.15;;;;;;;6.98;69.81;100787.05;1744654;82;20975;-68
2021/10/04 02:07:22;;;;;;;18.87;13.32;;;;;;;6.85;70.09;100788.55;1740358;82;21042;-68
2021/10/04 02:09:49;;;;;;;22.55;14.75;;;;;;;6.76;70.37;100783.95;1743146;82;21460;-67
2021/10/04 02:12:15;;;;;;;20.52;14.80;;;;;;;6.70;70.44;100786.17;1749125;82;21054;-68
2021/10/04 02:14:42;;;;;;;19.75;13.98;;;;;;;6.69;70.53;100785.89;1747033;82;21604;-68
2021/10/04 02:17:09;;;;;;;21.00;14.20;;;;;;;6.73;70.51;100783.02;1737452;82;20999;-67
2021/10/04 02:19:35;;;;;;;19.95;14.15;;;;;;;6.75;70.61;100778.75;1723903;82;21549;-67
2021/10/04 02:22:03;;;;;;;19.15;13.50;;;;;;;6.74;71.11;100786.55;1738838;82;21039;-68
2021/10/04 02:24:30;;;;;;;21.42;13.85;;;;;;;6.66;71.57;100792.27;1738519;82;21047;-67
2021/10/04 02:26:56;;;;;;;18.35;14.07;;;;;;;6.60;71.90;100791.25;1752014;82;21058;-67
2021/10/04 02:29:23;;;;;;;20.90;14.28;;;;;;;6.55;72.22;100792.97;1729920;82;21086;-68
2021/10/04 02:31:49;;;;;;;18.87;13.78;;;;;;;6.55;72.47;100793.80;1735763;82;21517;-67
2021/10/04 02:34:17;;;;;;;18.98;14.33;;;;;;;6.62;72.54;100797.29;1740186;82;21017;-67
2021/10/04 02:36:43;;;;;;;19.20;13.88;;;;;;;6.68;72.64;100803.16;1744472;82;21042;-68
2021/10/04 02:39:09;;;;;;;23.18;14.30;;;;;;;6.71;72.84;100797.83;1752887;82;21046;-67
2021/10/04 02:41:36;;;;;;;22.05;14.47;;;;;;;6.71;73.20;100797.83;1737860;82;21010;-68
2021/10/04 02:44:03;;;;;;;19.80;13.98;;;;;;;6.70;73.38;100802.41;1747775;81;21022;-68
2021/10/04 02:46:30;;;;;;;21.10;15.20;;;;;;;6.70;73.46;100797.52;1736530;82;21556;-68
2021/10/04 02:48:57;;;;;;;20.95;13.75;;;;;;;6.74;73.45;100800.92;1723350;82;21090;-68
2021/10/04 02:51:23;;;;;;;22.17;13.40;;;;;;;6.85;73.46;100792.60;1729486;82;21545;-68
2021/10/04 02:53:50;;;;;;;26.57;15.55;;;;;;;6.88;73.55;100797.05;1731124;82;20987;-68
2021/10/04 02:56:16;;;;;;;18.23;14.20;;;;;;;6.87;73.69;100794.03;1749319;82;21533;-67
2021/10/04 02:58:42;;;;;;;24.90;14.40;;;;;;;6.87;73.76;100799.99;1741171;82;20995;-68
2021/10/04 03:01:09;;;;;;;;;;;;;;;6.84;73.63;100801.24;1755144;81;21063;-67
2021/10/04 03:03:35;;;;;;;24.18;15.63;;;;;;;6.87;73.52;100804.05;1741591;82;20099;-68
2021/10/04 03:06:02;;;;;;;20.05;14.35;;;;;;;6.91;73.37;100810.66;1738361;82;21082;-67
2021/10/04 03:08:29;;;;;;;19.42;14.70;;;;;;;6.96;73.45;100812.19;1735345;82;21042;-67
2021/10/04 03:10:55;;;;;;;22.35;15.15;;;;;;;6.97;73.63;100823.33;1737324;82;21370;-67
2021/10/04 03:13:22;;;;;;;22.25;15.55;;;;;;;6.93;73.99;100815.34;1739398;82;21572;-68
2021/10/04 03:15:48;;;;;;;22.30;15.98;;;;;;;6.89;74.28;100819.53;1733115;82;21549;-68
2021/10/04 03:18:15;;;;;;;;;;;;;;;6.93;74.39;100820.75;1748356;82;21063;-67
2021/10/04 03:20:41;;;;;;;22.02;15.43;;;;;;;6.99;74.32;100804.45;1739063;82;20168;-68
2021/10/04 03:23:08;;;;;;;20.72;13.68;;;;;;;7.02;74.39;100808.58;1740009;82;21050;-68
2021/10/04 03:25:35;;;;;;;24.87;16.87;;;;;;;7.03;74.39;100819.72;1724945;82;20984;-67
2021/10/04 03:28:02;;;;;;;;;;;;;;;7.02;74.63;100813.99;1743490;82;21047;-67
2021/10/04 03:30:28;;;;;;;24.35;16.12;;;;;;;7.01;74.77;100809.09;1686079;84;20112;-67
2021/10/04 03:32:55;;;;;;;25.27;16.25;;;;;;;6.92;74.94;100801.49;1750594;80;21078;-67
2021/10/04 03:35:21;;;;;;;21.82;15.15;;;;;;;6.95;74.87;100804.58;1744199;82;21015;-67
2021/10/04 03:37:48;;;;;;;20.82;15.53;;;;;;;7.03;74.59;100802.13;1742520;82;21043;-67
2021/10/04 03:40:14;;;;;;;19.85;14.53;;;;;;;7.07;74.37;100806.05;1751350;82;21477;-67
2021/10/04 03:42:40;;;;;;;18.42;14.65;;;;;;;7.06;74.30;100807.61;1742230;82;21007;-67
2021/10/04 03:45:08;;;;;;;22.40;15.58;;;;;;;6.99;74.43;100804.45;1744822;82;21466;-67
2021/10/04 03:47:35;;;;;;;20.55;14.90;;;;;;;6.93;74.58;100799.09;1725062;82;21011;-67
2021/10/04 03:50:05;;;;;;;18.23;14.75;;;;;;;6.95;74.52;100809.16;1737795;82;20998;-67
2021/10/04 03:52:31;;;;;;;20.72;13.98;;;;;;;7.00;74.28;100814.75;1746295;82;21019;-67
2021/10/04 03:54:57;;;;;;;18.00;13.32;;;;;;;7.00;74.16;100816.94;1738616;82;21027;-67
2021/10/04 03:57:23;;;;;;;20.77;15.25;;;;;;;6.96;74.24;100822.48;1750942;82;20995;-67
2021/10/04 03:59:50;;;;;;;19.87;14.95;;;;;;;6.90;74.30;100822.03;1741220;82;21466;-67
2021/10/04 04:02:16;;;;;;;23.32;16.05;;;;;;;6.86;74.21;100830.28;1746033;81;20999;-66
2021/10/04 04:04:43;;;;;;;;;;;;;;;6.87;74.13;100824.35;1751837;82;21899;-66
2021/10/04 04:07:09;;;;;;;20.62;14.13;;;;;;;6.92;73.97;100821.27;1727154;82;20101;-66
2021/10/04 04:09:35;;;;;;;20.35;14.63;;;;;;;6.92;74.03;100823.15;1740470;82;21030;-66
2021/10/04 04:12:03;;;;;;;17.85;13.30;;;;;;;6.89;74.12;100821.72;1724298;82;21133;-66
2021/10/04 04:14:29;;;;;;;22.62;14.98;;;;;;;6.84;74.29;100824.25;1732404;82;21042;-66
2021/10/04 04:16:55;;;;;;;21.48;15.90;;;;;;;6.82;74.46;100837.19;1739317;82;21481;-66
2021/10/04 04:19:22;;;;;;;19.17;15.45;;;;;;;6.78;74.57;100830.55;1749352;82;21524;-66
2021/10/04 04:21:48;;;;;;;22.55;14.43;;;;;;;6.80;74.53;100835.20;1740595;82;21015;-67
2021/10/04 04:24:18;;;;;;;21.00;15.25;;;;;;;6.88;74.33;100843.06;1737386;82;21027;-66
2021/10/04 04:26:46;;;;;;;21.00;14.65;;;;;;;6.90;74.28;100850.98;1736086;82;21043;-67
2021/10/04 04:29:12;;;;;;;20.23;15.40;;;;;;;6.87;74.44;100850.87;1734250;82;21015;-66
2021/10/04 04:31:39;;;;;;;23.87;16.48;;;;;;;6.85;74.56;100850.80;1743604;82;20956;-66
2021/10/04 04:34:05;;;;;;;19.20;14.20;;;;;;;6.89;74.52;100854.20;1733992;82;21045;-66
2021/10/04 04:36:32;;;;;;;23.12;14.87;;;;;;;6.98;74.35;100846.09;1731886;82;21517;-66
2021/10/04 04:38:58;;;;;;;22.85;15.38;;;;;;;7.01;74.27;100853.77;1728615;82;21027;-66
2021/10/04 04:41:24;;;;;;;19.92;14.93;;;;;;;6.98;74.33;100854.73;1730050;82;21046;-67
2021/10/04 04:43:51;;;;;;;21.40;15.38;;;;;;;6.94;74.31;100853.55;1739158;82;21523;-67
2021/10/04 04:46:17;;;;;;;19.90;15.00;;;;;;;6.95;74.25;100853.31;1733545;82;21002;-67
2021/10/04 04:48:43;;;;;;;20.65;14.70;;;;;;;7.00;74.01;100848.08;1742103;82;21090;-67
2021/10/04 04:51:10;;;;;;;22.85;15.68;;;;;;;7.00;73.92;100852.66;1737282;82;21094;-67
2021/10/04 04:53:36;;;;;;;22.10;15.80;;;;;;;6.98;73.97;100858.28;1745193;82;21869;-68
2021/10/04 04:56:03;;;;;;;22.27;15.83;;;;;;;6.97;73.92;100860.70;1744888;82;20986;-66
2021/10/04 04:58:29;;;;;;;23.30;15.68;;;;;;;7.00;73.80;100860.26;1744897;82;21023;-67
2021/10/04 05:00:55;;;;;;;27.55;20.55;;;;;;;7.07;73.53;100854.78;1750920;81;20988;-67
2021/10/04 05:03:22;;;;;;;26.95;22.02;;;;;;;7.09;73.41;100851.83;1733892;82;21062;-67
2021/10/04 05:05:48;;;;;;;29.72;25.27;;;;;;;7.06;73.44;100854.47;1747940;82;20974;-68
2021/10/04 05:08:14;;;;;;;29.02;18.00;;;;;;;7.03;73.45;100856.79;1731168;82;21523;-67
2021/10/04 05:10:41;;;;;;;22.85;15.68;;;;;;;7.03;73.40;100851.38;1745199;82;21498;-67
2021/10/04 05:13:08;;;;;;;21.90;15.28;;;;;;;7.09;73.28;100851.31;1725213;82;21177;-67
2021/10/04 05:15:35;;;;;;;22.05;17.05;;;;;;;7.13;73.22;100849.83;1749749;82;21443;-68
2021/10/04 05:18:02;;;;;;;23.85;17.98;;;;;;;7.15;73.26;100851.80;1751085;82;20987;-68
2021/10/04 05:20:28;;;;;;;22.75;17.30;;;;;;;7.17;73.32;100852.91;1742303;82;21628;-68
2021/10/04 05:22:54;;;;;;;24.40;17.10;;;;;;;7.25;73.30;100862.95;1747348;82;21035;-67
2021/10/04 05:25:21;;;;;;;27.02;17.67;;;;;;;7.39;73.05;100861.77;1743565;82;21501;-66
2021/10/04 05:27:47;;;;;;;25.70;16.50;;;;;;;7.47;73.01;100854.68;1751154;82;21031;-65
2021/10/04 05:30:13;;;;;;;26.52;17.55;;;;;;;7.55;73.02;100859.51;1753561;82;21018;-65
2021/10/04 05:32:40;;;;;;;20.20;15.30;;;;;;;7.67;73.05;100865.33;1751144;82;20979;-65
2021/10/04 05:35:08;;;;;;;23.22;16.23;;;;;;;7.87;72.98;100865.92;1748179;82;20999;-65
2021/10/04 05:37:34;;;;;;;27.07;16.67;;;;;;;8.18;72.63;100869.00;1753056;82;20963;-65
2021/10/04 05:40:00;;;;;;;20.88;15.15;;;;;;;8.50;71.57;100869.08;1743944;82;20994;-65
2021/10/04 05:42:32;;;;;;;23.75;16.85;;;;;;;8.72;70.87;100860.41;1727155;82;21486;-65
2021/10/04 05:44:55;;;;;;;20.75;15.48;;;;;;;8.92;70.15;100865.84;1750103;82;21031;-66
2021/10/04 05:47:21;;;;;;;;;;;;;;;9.12;69.16;100868.22;1745970;82;21030;-66
2021/10/04 05:49:48;;;;;;;21.68;15.32;;;;;;;9.33;68.17;100855.41;1751907;82;20118;-66
2021/10/04 05:52:14;;;;;;;;;;;;;;;9.47;67.76;100865.52;1738083;82;21405;-66
2021/10/04 05:54:40;;;;;;;21.90;15.85;;;;;;;9.63;66.96;100859.89;1733623;82;20137;-66
2021/10/04 05:57:07;;;;;;;;;;;;;;;9.69;66.76;100861.66;1751204;80;21074;-66
2021/10/04 05:59:33;;;;;;;20.55;14.03;;;;;;;9.86;66.27;100858.48;1742960;82;20110;-67
2021/10/04 06:02:00;;;;;;;21.90;15.93;;;;;;;10.07;65.93;100864.64;1753121;82;21011;-67
2021/10/04 06:04:26;;;;;;;23.90;15.85;;;;;;;10.30;65.00;100861.05;1752535;82;21094;-68
2021/10/04 06:06:53;;;;;;;21.23;15.68;;;;;;;10.45;64.18;100858.07;1751434;82;21055;-66
2021/10/04 06:09:19;;;;;;;21.12;15.60;;;;;;;10.57;63.75;100864.00;1740712;82;21026;-67
2021/10/04 06:11:46;;;;;;;19.87;15.28;;;;;;;10.67;63.44;100864.18;1723205;82;21117;-67
2021/10/04 06:14:14;;;;;;;21.00;15.10;;;;;;;10.84;62.96;100867.22;1723160;83;21143;-66
2021/10/04 06:16:40;;;;;;;;;;;;;;;11.01;62.28;100866.42;1745217;82;21031;-65
2021/10/04 06:19:06;;;;;;;20.12;13.70;;;;;;;11.20;61.64;100878.70;1729967;82;20366;-67
2021/10/04 06:21:34;;;;;;;21.57;15.38;;;;;;;11.26;61.88;100875.84;1734559;82;20980;-67
2021/10/04 06:24:00;;;;;;;18.92;14.25;;;;;;;11.43;61.04;100869.83;1732034;82;21006;-67
2021/10/04 06:26:26;;;;;;;21.05;15.08;;;;;;;11.60;60.03;100875.78;1733791;82;20975;-66
2021/10/04 06:28:53;;;;;;;19.95;14.43;;;;;;;11.71;59.70;100885.80;1731411;82;21019;-66
2021/10/04 06:31:19;;;;;;;18.07;13.68;;;;;;;11.88;59.15;100885.21;1728703;82;21078;-66
2021/10/04 06:33:46;;;;;;;20.95;13.58;;;;;;;12.04;58.43;100887.61;1742293;82;21069;-66
2021/10/04 06:36:12;;;;;;;20.05;14.25;;;;;;;12.22;58.65;100886.73;1740783;82;21523;-66
2021/10/04 06:38:39;;;;;;;19.50;13.45;;;;;;;12.45;57.86;100878.28;1728013;82;21071;-65
2021/10/04 06:41:05;;;;;;;;;;;;;;;12.68;57.77;100877.70;1734605;82;21043;-66
2021/10/04 06:43:32;;;;;;;17.57;12.25;;;;;;;12.95;56.90;100882.61;1733324;82;20097;-66
2021/10/04 06:45:58;;;;;;;;;;;;;;;13.08;56.40;100871.77;1738963;82;20959;-66
2021/10/04 06:48:24;;;;;;;16.15;12.73;;;;;;;13.36;55.88;100880.51;1750845;82;20099;-66
2021/10/04 06:50:51;;;;;;;;;;;;;;;13.55;54.88;100877.36;1749787;82;20999;-67
2021/10/04 06:53:17;;;;;;;17.62;12.00;;;;;;;13.76;53.79;100879.12;1746954;82;20101;-66
2021/10/04 06:55:45;;;;;;;;;;;;;;;13.82;54.05;100880.80;1742383;82;21553;-67
2021/10/04 06:58:12;;;;;;;18.48;13.13;;;;;;;14.01;52.89;100881.17;1733687;82;20105;-66
2021/10/04 07:00:38;;;;;;;19.07;12.50;;;;;;;14.05;52.52;100880.38;1735787;82;21019;-67
2021/10/04 07:03:05;;;;;;;16.65;11.80;;;;;;;14.19;51.64;100882.08;1706841;82;21142;-67
2021/10/04 07:05:33;;;;;;;17.45;12.43;;;;;;;14.26;51.75;100884.84;1705219;82;21511;-68
2021/10/04 07:08:00;;;;;;;;;;;;;;;14.38;51.11;100880.55;1719988;82;21079;-68
2021/10/04 07:10:26;;;;;;;18.50;12.43;;;;;;;14.47;51.21;100874.81;1738778;81;20119;-69
2021/10/04 07:12:53;;;;;;;18.90;11.80;;;;;;;14.62;51.56;100876.77;1739060;82;21063;-66
2021/10/04 07:15:20;;;;;;;24.77;17.02;;;;;;;14.91;50.22;100876.55;1730862;82;20980;-68
2021/10/04 07:17:46;;;;;;;166.68;91.57;;;;;;;15.13;49.62;100879.83;1702370;82;21043;-68
2021/10/04 07:20:13;;;;;;;154.07;97.50;;;;;;;15.28;49.00;100894.92;1695284;85;20998;-67
2021/10/04 07:22:40;;;;;;;79.82;50.63;;;;;;;15.42;49.13;100886.95;1707266;82;21108;-69
2021/10/04 07:25:08;;;;;;;66.12;42.55;;;;;;;15.71;48.68;100886.67;1725547;81;20992;-70
2021/10/04 07:27:35;;;;;;;133.72;81.40;;;;;;;16.02;48.27;100887.40;1669546;84;21063;-69
2021/10/04 07:30:03;;;;;;;47.08;30.23;;;;;;;16.30;47.38;100882.62;1721821;82;21496;-70
2021/10/04 07:32:30;;;;;;;18.65;12.35;;;;;;;16.58;47.08;100892.70;1723056;82;21044;-69
2021/10/04 07:34:57;;;;;;;124.53;75.45;;;;;;;16.86;46.61;100887.27;1727948;82;21499;-69
2021/10/04 07:37:23;;;;;;;284.18;175.18;;;;;;;17.24;45.06;100883.42;1726587;82;20983;-69
2021/10/04 07:39:49;;;;;;;62.50;39.10;;;;;;;17.54;44.68;100881.75;1723364;82;21048;-69
2021/10/04 07:42:16;;;;;;;20.50;13.08;;;;;;;17.79;43.82;100879.32;1726247;81;21531;-70
2021/10/04 07:44:42;;;;;;;131.95;71.65;;;;;;;17.99;42.75;100879.12;1725932;81;21644;-69
2021/10/04 07:47:08;;;;;;;16.70;10.23;;;;;;;18.11;42.16;100878.13;1729657;81;21032;-71
2021/10/04 07:49:35;;;;;;;9.90;6.85;;;;;;;18.25;41.28;100885.94;1741716;81;21099;-70
2021/10/04 07:52:02;;;;;;;17.82;11.97;;;;;;;18.44;40.65;100879.09;1725012;82;21023;-70
2021/10/04 07:54:29;;;;;;;10.23;7.00;;;;;;;18.62;40.27;100881.08;1735452;82;21083;-69
2021/10/04 07:56:55;;;;;;;10.68;6.67;;;;;;;18.88;39.29;100888.44;1735459;82;21004;-68
2021/10/04 07:59:22;;;;;;;10.32;7.15;;;;;;;19.00;37.82;100888.78;1719236;82;21003;-70
2021/10/04 08:01:48;;;;;;;9.95;6.35;;;;;;;19.05;37.65;100891.47;1727714;81;21036;-69
2021/10/04 08:04:14;;;;;;;9.68;5.83;;;;;;;19.14;37.36;100891.03;1738302;82;21062;-69
2021/10/04 08:06:41;;;;;;;9.05;5.70;;;;;;;19.25;37.53;100887.55;1753272;80;21458;-70
2021/10/04 08:09:09;;;;;;;9.93;5.53;;;;;;;19.50;37.76;100881.63;1738332;80;21043;-69
2021/10/04 08:11:35;;;;;;;9.63;5.03;;;;;;;19.84;35.91;100877.94;1745524;82;21019;-70
2021/10/04 08:14:02;;;;;;;8.95;4.58;;;;;;;19.99;34.35;100876.00;1725305;82;21045;-71
2021/10/04 08:16:29;;;;;;;7.87;4.67;;;;;;;19.90;34.36;100877.29;1742102;82;21074;-72
2021/10/04 08:18:55;;;;;;;5.60;3.95;;;;;;;20.02;35.07;100874.82;1727063;82;21019;-71
2021/10/04 08:21:22;;;;;;;6.58;3.58;;;;;;;20.32;34.23;100872.03;1726482;82;21026;-72
2021/10/04 08:23:49;;;;;;;6.85;4.12;;;;;;;20.42;32.07;100869.60;1728681;82;21062;-67
2021/10/04 08:26:15;;;;;;;5.20;3.65;;;;;;;20.36;32.69;100864.77;1740237;80;20943;-71
2021/10/04 08:28:42;;;;;;;6.40;3.65;;;;;;;20.44;32.72;100859.86;1742337;80;21614;-68
2021/10/04 08:31:08;;;;;;;6.80;3.20;;;;;;;20.56;33.06;100863.48;1725641;82;21047;-71
2021/10/04 08:33:35;;;;;;;5.80;3.30;;;;;;;20.64;32.11;100866.91;1736115;82;21474;-70
2021/10/04 08:36:04;;;;;;;7.05;3.42;;;;;;;20.65;30.61;100867.95;1729248;82;20995;-71
2021/10/04 08:38:29;;;;;;;4.67;3.27;;;;;;;20.53;30.70;100869.64;1728608;82;20995;-69
2021/10/04 08:40:56;;;;;;;6.92;3.37;;;;;;;20.47;31.16;100873.09;1730779;82;21588;-69
2021/10/04 08:43:22;;;;;;;10.20;6.28;;;;;;;20.62;30.91;100871.91;1731522;82;21050;-70
2021/10/04 08:45:49;;;;;;;5.30;3.62;;;;;;;20.56;30.17;100875.92;1733342;82;21388;-70
2021/10/04 08:48:16;;;;;;;16.12;10.38;;;;;;;20.50;30.12;100877.17;1740156;82;21054;-68
2021/10/04 08:50:44;;;;;;;5.75;4.30;;;;;;;20.47;30.62;100878.63;1731386;81;20983;-69
2021/10/04 08:53:10;;;;;;;6.35;4.08;;;;;;;20.47;29.78;100880.01;1740025;82;21051;-69
2021/10/04 08:55:37;;;;;;;27.70;15.60;;;;;;;20.28;29.80;100870.45;1727715;80;21069;-68
2021/10/04 08:58:10;;;;;;;15.60;9.90;;;;;;;20.20;31.00;100876.66;1734639;82;21687;-69
2021/10/04 09:00:39;;;;;;;8.93;5.70;;;;;;;20.43;30.68;100876.78;1734514;82;21095;-67
2021/10/04 09:03:05;;;;;;;8.43;6.12;;;;;;;20.50;29.77;100880.77;1746962;82;21538;-67
2021/10/04 09:05:32;;;;;;;6.90;3.95;;;;;;;20.34;30.70;100885.80;1724155;81;21003;-68
2021/10/04 09:08:07;;;;;;;8.40;5.33;;;;;;;20.39;30.30;100883.50;1745208;82;21541;-69
2021/10/04 09:10:32;;;;;;;7.60;3.98;;;;;;;20.47;30.24;100886.09;1749416;82;20968;-68
2021/10/04 09:13:13;;;;;;;4.55;2.98;;;;;;;20.52;30.19;100887.35;1746994;80;21046;-69
2021/10/04 09:15:47;;;;;;;10.20;6.37;;;;;;;20.63;29.76;100887.39;1729703;82;20967;-70
2021/10/04 09:18:26;;;;;;;103.55;69.53;;;;;;;20.71;29.14;100893.58;1736353;82;21031;-70
2021/10/04 09:20:58;;;;;;;14.43;9.23;;;;;;;20.66;29.30;100884.81;1748034;82;21027;-68
2021/10/04 09:23:52;;;;;;;5.37;3.15;;;;;;;20.72;29.33;100882.77;1732999;82;21042;-69
2021/10/04 09:26:32;;;;;;;4.42;2.98;;;;;;;20.77;29.37;100885.41;1734693;82;21470;-70
2021/10/04 09:29:10;;;;;;;5.55;3.05;;;;;;;20.85;29.23;100883.28;1742042;82;21086;-69
2021/10/04 09:31:40;;;;;;;16.05;9.88;;;;;;;20.76;28.80;100879.05;1745420;82;20964;-68
2021/10/04 09:34:21;;;;;;;12.05;6.30;;;;;;;20.34;29.13;100874.73;1727674;82;21038;-69
2021/10/04 09:36:56;;;;;;;14.35;9.15;;;;;;;20.01;29.77;100871.83;1734519;82;21533;-70
2021/10/04 09:39:29;;;;;;;8.88;6.60;;;;;;;19.69;30.20;100866.38;1744888;82;21678;-69
2021/10/04 09:42:17;;;;;;;7.70;3.90;;;;;;;19.45;30.87;100856.84;1729070;82;21043;-70
2021/10/04 09:45:00;;;;;;;6.77;3.63;;;;;;;19.16;31.03;100861.21;1740589;82;21078;-68
2021/10/04 09:47:39;;;;;;;4.70;3.40;;;;;;;18.82;31.11;100858.70;1674233;85;21002;-67
2021/10/04 09:50:20;;;;;;;5.72;3.33;;;;;;;18.27;31.39;100862.23;1725123;82;20975;-67
2021/10/04 09:52:52;;;;;;;8.10;4.12;;;;;;;17.85;32.61;100854.18;1735432;82;21526;-70
2021/10/04 09:55:31;;;;;;;9.80;3.52;;;;;;;17.59;33.37;100858.34;1746353;82;21293;-68
2021/10/04 09:58:04;;;;;;;4.95;2.70;;;;;;;17.40;33.36;100854.64;1754458;80;21556;-69
2021/10/04 10:00:53;;;;;;;4.72;3.00;;;;;;;17.18;32.91;100857.86;1744584;80;20975;-69
2021/10/04 10:03:23;;;;;;;7.15;3.30;;;;;;;16.98;32.85;100853.08;1731261;82;21038;-68
2021/10/04 10:05:55;;;;;;;6.17;3.20;;;;;;;16.76;33.64;100843.89;1673907;85;21790;-67
2021/10/04 10:08:23;;;;;;;7.30;3.72;;;;;;;16.57;34.18;100842.39;1672673;85;21094;-67
2021/10/04 10:10:51;;;;;;;8.33;3.65;;;;;;;16.40;34.95;100846.84;1743527;82;21596;-67
2021/10/04 10:13:19;;;;;;;27.32;11.88;;;;;;;16.36;35.56;100847.70;1737080;81;21604;-67
2021/10/04 10:15:51;;;;;;;15.53;8.30;;;;;;;16.35;36.16;100849.63;1742548;82;20999;-68
2021/10/04 10:18:26;;;;;;;31.23;17.98;;;;;;;16.37;36.29;100842.45;1724744;80;21557;-67
2021/10/04 10:21:02;;;;;;;20.02;11.45;;;;;;;16.40;37.10;100845.46;1738291;82;21026;-68
2021/10/04 10:23:50;;;;;;;18.23;9.33;;;;;;;16.42;37.20;100826.78;1734496;82;21529;-69
2021/10/04 10:26:42;;;;;;;9.08;4.42;;;;;;;16.43;37.29;100838.05;1727395;82;21562;-68
2021/10/04 10:29:19;;;;;;;27.90;15.83;;;;;;;16.44;36.71;100826.48;1741587;82;21506;-70
2021/10/04 10:31:51;;;;;;;;;;;;;;;16.37;37.16;100837.79;1736894;82;21059;-70
2021/10/04 10:34:37;;;;;;;175.27;98.03;;;;;;;16.33;37.55;100840.03;1739610;82;20431;-69
2021/10/04 10:37:20;;;;;;;86.63;47.85;;;;;;;16.24;37.91;100830.17;1740700;82;21003;-69
2021/10/04 10:39:58;;;;;;;54.90;32.58;;;;;;;16.28;38.65;100832.63;1747499;80;21070;-69
2021/10/04 10:42:38;;;;;;;15.05;7.92;;;;;;;16.34;38.50;100835.61;1739021;80;20961;-71
2021/10/04 10:45:09;;;;;;;29.05;16.37;;;;;;;16.40;37.91;100825.43;1740652;82;20940;-71
2021/10/04 10:47:43;;;;;;;26.52;13.48;;;;;;;16.41;38.03;100821.01;1733546;82;20967;-69
2021/10/04 10:50:30;;;;;;;9.53;6.22;;;;;;;16.49;37.72;100816.02;1749625;82;20994;-71
2021/10/04 10:53:02;;;;;;;20.72;11.12;;;;;;;16.55;36.91;100822.56;1731963;82;21070;-70
2021/10/04 10:55:45;;;;;;;16.42;9.03;;;;;;;16.54;36.65;100821.49;1731931;82;21482;-71
2021/10/04 10:58:14;;;;;;;14.25;6.78;;;;;;;16.53;36.46;100823.41;1739810;82;21055;-70
2021/10/04 11:00:51;;;;;;;15.13;9.00;;;;;;;16.57;36.92;100813.53;1734481;82;20983;-70
2021/10/04 11:03:25;;;;;;;11.65;5.45;;;;;;;16.69;36.42;100813.98;1734942;82;21022;-68
2021/10/04 11:06:04;;;;;;;9.85;6.33;;;;;;;16.77;35.79;100811.17;1744959;82;20971;-67
2021/10/04 11:08:52;;;;;;;12.63;5.90;;;;;;;16.80;36.01;100816.09;1731075;82;21043;-68
2021/10/04 11:11:22;;;;;;;16.77;7.03;;;;;;;16.84;35.88;100816.62;1730358;82;21520;-68
2021/10/04 11:14:07;;;;;;;12.68;4.80;;;;;;;16.87;36.14;100813.84;1729517;82;21093;-67
2021/10/04 11:16:37;;;;;;;5.85;3.35;;;;;;;16.92;36.67;100805.56;1738421;82;21486;-67
2021/10/04 11:19:04;;;;;;;10.03;3.47;;;;;;;17.04;35.85;100802.44;1731339;82;21600;-67
2021/10/04 11:21:31;;;;;;;7.40;3.77;;;;;;;17.13;35.96;100799.31;1738372;82;21506;-70
2021/10/04 11:24:06;;;;;;;5.50;3.20;;;;;;;17.18;35.08;100796.53;1741511;82;21043;-67
2021/10/04 11:26:35;;;;;;;7.25;4.60;;;;;;;17.17;35.32;100797.63;1708873;82;21548;-67
2021/10/04 11:29:04;;;;;;;33.42;17.92;;;;;;;17.19;35.09;100803.10;1723142;83;21070;-67
2021/10/04 11:31:34;;;;;;;7.12;4.10;;;;;;;17.16;35.08;100801.48;1729471;82;20959;-69